createdAt,value
2017-09-25T00:00:45.117Z,9.84
2017-09-25T00:03:13.464Z,9.95
2017-09-25T00:05:41.800Z,9.85
2017-09-25T00:08:10.161Z,9.74
2017-09-25T00:10:39.267Z,9.68
2017-09-25T00:13:08.371Z,9.74
2017-09-25T00:15:36.706Z,9.63
2017-09-25T00:18:05.028Z,9.55
2017-09-25T00:20:33.355Z,9.48
2017-09-25T00:23:01.684Z,9.59
2017-09-25T00:25:30.019Z,9.59
2017-09-25T00:27:58.341Z,9.56
2017-09-25T00:30:27.452Z,9.44
2017-09-25T00:32:55.782Z,9.64
2017-09-25T00:35:24.091Z,9.76
2017-09-25T00:37:53.191Z,9.71
2017-09-25T00:40:21.499Z,9.54
2017-09-25T00:42:49.829Z,9.54
2017-09-25T00:45:18.260Z,9.67
2017-09-25T00:47:46.582Z,9.62
2017-09-25T00:50:14.931Z,9.42
2017-09-25T00:53:01.167Z,9.28
2017-09-25T00:58:33.125Z,9.46
2017-09-25T01:01:12.682Z,9.41
2017-09-25T01:03:53.614Z,9.28
2017-09-25T01:06:26.639Z,9.21
2017-09-25T01:08:54.984Z,9.10
2017-09-25T01:11:23.738Z,9.23
2017-09-25T01:13:52.812Z,9.22
2017-09-25T01:16:21.150Z,9.34
2017-09-25T01:18:49.457Z,9.24
2017-09-25T01:21:18.171Z,9.13
2017-09-25T01:23:47.271Z,9.00
2017-09-25T01:26:16.793Z,9.08
2017-09-25T01:28:45.887Z,9.20
2017-09-25T01:31:15.025Z,9.05
2017-09-25T01:33:43.627Z,9.11
2017-09-25T01:36:12.054Z,9.05
2017-09-25T01:38:40.382Z,8.95
2017-09-25T01:41:08.744Z,8.79
2017-09-25T01:43:37.964Z,8.94
2017-09-25T01:46:06.322Z,8.90
2017-09-25T01:48:35.967Z,8.81
2017-09-25T01:51:05.230Z,8.76
2017-09-25T01:53:33.601Z,8.70
2017-09-25T01:56:01.924Z,8.61
2017-09-25T01:58:30.684Z,8.71
2017-09-25T02:00:59.014Z,8.63
2017-09-25T02:03:28.112Z,8.77
2017-09-25T02:05:59.192Z,8.63
2017-09-25T02:08:27.547Z,8.57
2017-09-25T02:10:56.950Z,8.56
2017-09-25T02:13:25.269Z,8.62
2017-09-25T02:15:53.593Z,8.65
2017-09-25T02:18:22.695Z,8.54
2017-09-25T02:20:51.071Z,8.47
2017-09-25T02:23:19.402Z,8.42
2017-09-25T02:25:47.729Z,8.38
2017-09-25T02:28:17.363Z,8.46
2017-09-25T02:30:45.743Z,8.68
2017-09-25T02:33:14.065Z,8.72
2017-09-25T02:35:42.886Z,8.59
2017-09-25T02:38:11.217Z,8.51
2017-09-25T02:40:39.533Z,8.45
2017-09-25T02:43:08.740Z,8.48
2017-09-25T02:45:37.070Z,8.54
2017-09-25T02:48:05.709Z,8.58
2017-09-25T02:50:34.025Z,8.34
2017-09-25T02:53:02.374Z,8.35
2017-09-25T02:55:31.486Z,8.48
2017-09-25T02:57:59.802Z,8.29
2017-09-25T03:00:28.238Z,8.18
2017-09-25T03:02:56.550Z,8.21
2017-09-25T03:05:24.879Z,8.14
2017-09-25T03:07:53.974Z,8.28
2017-09-25T03:10:22.321Z,8.29
2017-09-25T03:12:50.692Z,8.25
2017-09-25T03:15:19.011Z,8.20
2017-09-25T03:17:47.343Z,8.11
2017-09-25T03:20:15.688Z,8.16
2017-09-25T03:22:44.021Z,8.33
2017-09-25T03:25:12.345Z,8.42
2017-09-25T03:27:41.520Z,8.46
2017-09-25T03:30:10.223Z,8.47
2017-09-25T03:32:39.322Z,8.47
2017-09-25T03:35:07.664Z,8.46
2017-09-25T03:37:35.978Z,8.46
2017-09-25T03:40:05.078Z,8.43
2017-09-25T03:42:33.425Z,8.41
2017-09-25T03:45:01.751Z,8.37
2017-09-25T03:47:30.096Z,8.32
2017-09-25T03:49:58.504Z,8.33
2017-09-25T03:52:26.895Z,8.31
2017-09-25T03:54:55.218Z,8.31
2017-09-25T03:57:23.542Z,8.20
2017-09-25T03:59:51.866Z,8.22
2017-09-25T04:02:20.192Z,8.13
2017-09-25T04:04:48.536Z,8.15
2017-09-25T04:07:16.892Z,8.16
2017-09-25T04:09:45.643Z,8.16
2017-09-25T04:12:13.985Z,8.17
2017-09-25T04:14:42.303Z,8.15
2017-09-25T04:17:10.631Z,8.13
2017-09-25T04:19:38.950Z,8.19
2017-09-25T04:22:07.285Z,8.16
2017-09-25T04:24:35.594Z,8.07
2017-09-25T04:27:05.212Z,8.05
2017-09-25T04:29:34.305Z,8.02
2017-09-25T04:32:02.633Z,8.10
2017-09-25T04:34:30.973Z,8.09
2017-09-25T04:36:59.322Z,8.14
2017-09-25T04:39:27.664Z,8.16
2017-09-25T04:41:55.986Z,8.05
2017-09-25T04:44:24.347Z,7.89
2017-09-25T04:46:52.667Z,7.93
2017-09-25T04:49:21.212Z,7.94
2017-09-25T04:51:49.565Z,8.12
2017-09-25T04:54:17.889Z,8.11
2017-09-25T04:56:46.233Z,8.20
2017-09-25T04:59:15.590Z,8.18
2017-09-25T05:01:44.692Z,8.21
2017-09-25T05:04:13.081Z,8.30
2017-09-25T05:06:41.430Z,8.48
2017-09-25T05:09:09.771Z,8.42
2017-09-25T05:11:38.146Z,8.50
2017-09-25T05:14:06.489Z,8.61
2017-09-25T05:16:35.579Z,8.66
2017-09-25T05:19:03.929Z,8.70
2017-09-25T05:21:32.297Z,8.63
2017-09-25T05:24:00.635Z,8.66
2017-09-25T05:26:28.982Z,8.66
2017-09-25T05:28:57.305Z,8.70
2017-09-25T05:31:25.636Z,8.77
2017-09-25T05:33:53.966Z,8.81
2017-09-25T05:36:22.379Z,8.74
2017-09-25T05:38:50.729Z,8.75
2017-09-25T05:41:19.057Z,8.85
2017-09-25T05:43:47.417Z,8.79
2017-09-25T05:46:15.754Z,8.91
2017-09-25T05:48:44.108Z,8.91
2017-09-25T05:51:13.201Z,8.95
2017-09-25T05:53:41.869Z,9.03
2017-09-25T05:56:10.214Z,8.95
2017-09-25T05:58:38.529Z,9.03
2017-09-25T06:01:06.877Z,9.13
2017-09-25T06:03:35.191Z,9.14
2017-09-25T06:06:03.541Z,9.19
2017-09-25T06:08:32.376Z,9.23
2017-09-25T06:11:01.759Z,9.30
2017-09-25T06:13:30.107Z,9.21
2017-09-25T06:15:58.437Z,9.30
2017-09-25T06:18:27.559Z,9.40
2017-09-25T06:20:55.885Z,9.47
2017-09-25T06:23:24.232Z,9.52
2017-09-25T06:25:52.591Z,9.61
2017-09-25T06:28:20.995Z,9.69
2017-09-25T06:30:49.320Z,9.77
2017-09-25T06:33:18.468Z,9.89
2017-09-25T06:35:46.821Z,9.95
2017-09-25T06:38:15.154Z,10.00
2017-09-25T06:40:43.502Z,9.98
2017-09-25T06:43:11.838Z,10.06
2017-09-25T06:45:40.192Z,10.09
2017-09-25T06:48:08.512Z,10.10
2017-09-25T06:50:36.858Z,10.19
2017-09-25T06:53:05.234Z,10.26
2017-09-25T06:55:34.369Z,10.24
2017-09-25T06:58:03.492Z,10.27
2017-09-25T07:00:31.818Z,10.36
2017-09-25T07:03:00.165Z,10.42
2017-09-25T07:05:28.522Z,10.52
2017-09-25T07:07:56.933Z,10.60
2017-09-25T07:10:26.216Z,10.68
2017-09-25T07:12:54.557Z,10.74
2017-09-25T07:15:23.962Z,10.78
2017-09-25T07:17:52.307Z,10.87
2017-09-25T07:20:20.661Z,10.97
2017-09-25T07:22:48.996Z,11.07
2017-09-25T07:25:18.096Z,11.15
2017-09-25T07:27:46.467Z,11.22
2017-09-25T07:30:14.812Z,11.33
2017-09-25T07:32:43.163Z,11.42
2017-09-25T07:35:11.498Z,11.52
2017-09-25T07:37:39.943Z,11.61
2017-09-25T07:40:08.300Z,11.72
2017-09-25T07:42:36.652Z,11.80
2017-09-25T07:45:05.760Z,11.87
2017-09-25T07:47:34.092Z,11.94
2017-09-25T07:50:02.451Z,12.01
2017-09-25T07:52:30.813Z,12.05
2017-09-25T07:54:59.547Z,12.10
2017-09-25T07:57:27.889Z,12.17
2017-09-25T07:59:56.299Z,12.22
2017-09-25T08:02:24.662Z,12.27
2017-09-25T08:04:52.991Z,12.33
2017-09-25T08:07:22.120Z,12.38
2017-09-25T08:09:50.462Z,12.41
2017-09-25T08:12:19.163Z,12.44
2017-09-25T08:14:48.269Z,12.49
2017-09-25T08:17:18.867Z,12.52
2017-09-25T08:19:47.287Z,12.54
2017-09-25T08:22:20.116Z,12.60
2017-09-25T08:24:48.791Z,12.64
2017-09-25T08:27:17.157Z,12.68
2017-09-25T08:29:45.476Z,12.74
2017-09-25T08:32:13.822Z,12.78
2017-09-25T08:34:42.166Z,12.82
2017-09-25T08:37:11.270Z,12.92
2017-09-25T08:39:39.617Z,12.95
2017-09-25T08:42:07.966Z,13.02
2017-09-25T08:44:36.314Z,13.06
2017-09-25T08:47:04.647Z,13.15
2017-09-25T08:49:33.149Z,13.21
2017-09-25T08:52:01.473Z,13.29
2017-09-25T08:54:29.816Z,13.33
2017-09-25T08:56:58.903Z,13.41
2017-09-25T08:59:28.444Z,13.45
2017-09-25T09:01:56.797Z,13.51
2017-09-25T09:04:25.910Z,13.55
2017-09-25T09:06:54.258Z,13.60
2017-09-25T09:09:22.582Z,13.67
2017-09-25T09:11:50.940Z,13.66
2017-09-25T09:14:20.049Z,13.70
2017-09-25T09:16:48.395Z,13.74
2017-09-25T09:19:16.723Z,13.79
2017-09-25T09:21:45.070Z,13.87
2017-09-25T09:24:14.199Z,13.91
2017-09-25T09:26:42.531Z,14.02
2017-09-25T09:29:10.884Z,14.05
2017-09-25T09:31:39.220Z,14.03
2017-09-25T09:34:07.603Z,14.05
2017-09-25T09:36:35.966Z,14.04
2017-09-25T09:39:05.074Z,14.04
2017-09-25T09:41:33.421Z,14.07
2017-09-25T09:44:01.759Z,14.09
2017-09-25T09:46:30.220Z,14.10
2017-09-25T09:48:58.552Z,14.15
2017-09-25T09:51:26.935Z,14.21
2017-09-25T09:53:55.299Z,14.24
2017-09-25T09:56:23.642Z,14.25
2017-09-25T09:58:52.001Z,14.27
2017-09-25T10:01:21.144Z,14.22
2017-09-25T10:03:49.482Z,14.26
2017-09-25T10:06:17.846Z,14.29
2017-09-25T10:08:46.167Z,14.33
2017-09-25T10:11:14.519Z,14.39
2017-09-25T10:13:43.624Z,14.39
2017-09-25T10:16:12.296Z,14.36
2017-09-25T10:18:41.227Z,14.39
2017-09-25T10:21:09.561Z,14.44
2017-09-25T10:23:38.687Z,14.51
2017-09-25T10:26:07.016Z,14.49
2017-09-25T10:28:35.370Z,14.55
2017-09-25T10:31:03.715Z,14.59
2017-09-25T10:33:32.500Z,14.66
2017-09-25T10:36:01.604Z,14.71
2017-09-25T10:38:29.989Z,14.78
2017-09-25T10:40:58.326Z,14.88
2017-09-25T10:43:26.658Z,14.96
2017-09-25T10:45:54.999Z,15.01
2017-09-25T10:48:23.352Z,15.07
2017-09-25T10:50:51.712Z,15.09
2017-09-25T10:53:20.057Z,15.20
2017-09-25T10:55:49.156Z,15.30
2017-09-25T10:58:17.495Z,15.34
2017-09-25T11:00:45.811Z,15.38
2017-09-25T11:03:15.219Z,15.45
2017-09-25T11:05:43.564Z,15.47
2017-09-25T11:08:11.896Z,15.60
2017-09-25T11:10:41.186Z,15.63
2017-09-25T11:13:09.513Z,15.68
2017-09-25T11:15:37.891Z,15.76
2017-09-25T11:18:06.208Z,15.83
2017-09-25T11:20:34.554Z,15.88
2017-09-25T11:23:02.905Z,15.92
2017-09-25T11:25:31.217Z,15.93
2017-09-25T11:27:59.563Z,15.93
2017-09-25T11:30:27.889Z,15.95
2017-09-25T11:32:57.302Z,15.94
2017-09-25T11:35:25.624Z,15.96
2017-09-25T11:37:53.943Z,16.01
2017-09-25T11:40:22.305Z,16.03
2017-09-25T11:42:50.676Z,16.09
2017-09-25T11:45:19.058Z,16.14
2017-09-25T11:47:47.396Z,16.15
2017-09-25T11:50:16.275Z,16.23
2017-09-25T11:52:44.612Z,16.30
2017-09-25T11:55:12.928Z,16.38
2017-09-25T11:57:42.808Z,16.51
2017-09-25T12:00:11.154Z,16.57
2017-09-25T12:02:39.500Z,16.64
2017-09-25T12:05:07.826Z,16.71
2017-09-25T12:07:36.169Z,16.81
2017-09-25T12:10:04.500Z,16.83
2017-09-25T12:12:32.872Z,16.90
2017-09-25T12:15:01.216Z,16.92
2017-09-25T12:17:29.541Z,17.02
2017-09-25T12:19:57.886Z,17.09
2017-09-25T12:22:26.238Z,17.11
2017-09-25T12:24:55.358Z,17.14
2017-09-25T12:27:23.696Z,17.18
2017-09-25T12:29:52.052Z,17.27
2017-09-25T12:32:20.510Z,17.34
2017-09-25T12:34:48.848Z,17.36
2017-09-25T12:37:17.950Z,17.38
2017-09-25T12:39:46.306Z,17.40
2017-09-25T12:42:14.692Z,17.40
2017-09-25T12:44:43.045Z,17.35
2017-09-25T12:47:11.387Z,17.36
2017-09-25T12:49:39.724Z,17.41
2017-09-25T12:52:08.055Z,17.45
2017-09-25T12:54:36.812Z,17.49
2017-09-25T12:57:05.900Z,17.55
2017-09-25T12:59:34.267Z,17.57
2017-09-25T13:02:02.597Z,17.62
2017-09-25T13:04:30.947Z,17.68
2017-09-25T13:07:00.048Z,17.75
2017-09-25T13:09:28.381Z,17.79
2017-09-25T13:11:56.740Z,17.76
2017-09-25T13:14:25.061Z,17.79
2017-09-25T13:16:55.710Z,17.87
2017-09-25T13:19:24.037Z,17.92
2017-09-25T13:21:52.365Z,18.03
2017-09-25T13:24:21.473Z,18.09
2017-09-25T13:26:50.551Z,18.15
2017-09-25T13:29:18.894Z,18.20
2017-09-25T13:31:47.206Z,18.26
2017-09-25T13:34:15.893Z,18.26
2017-09-25T13:36:46.757Z,18.34
2017-09-25T13:39:15.274Z,18.40
2017-09-25T13:41:43.675Z,18.48
2017-09-25T13:44:12.031Z,18.48
2017-09-25T13:46:40.397Z,18.48
2017-09-25T13:49:09.238Z,18.49
2017-09-25T13:51:37.949Z,18.54
2017-09-25T13:54:07.225Z,18.60
2017-09-25T13:56:35.617Z,18.67
2017-09-25T14:04:12.075Z,18.86
2017-09-25T14:06:40.407Z,18.90
2017-09-25T14:09:09.565Z,18.87
2017-09-25T14:11:37.886Z,18.89
2017-09-25T14:14:06.995Z,18.91
2017-09-25T14:16:36.087Z,19.01
2017-09-25T14:19:05.493Z,19.12
2017-09-25T14:21:33.815Z,19.20
2017-09-25T14:24:02.154Z,19.22
2017-09-25T14:26:31.253Z,19.10
2017-09-25T14:28:59.596Z,19.02
2017-09-25T14:31:27.935Z,19.07
2017-09-25T14:33:56.265Z,19.01
2017-09-25T14:36:24.715Z,19.11
2017-09-25T14:38:58.719Z,19.15
2017-09-25T14:41:27.363Z,19.31
2017-09-25T14:43:55.705Z,19.64
2017-09-25T14:46:24.063Z,19.71
2017-09-25T14:48:52.576Z,19.68
2017-09-25T14:51:21.001Z,19.69
2017-09-25T14:53:49.375Z,19.67
2017-09-25T14:56:17.714Z,19.66
2017-09-25T14:58:47.523Z,19.66
2017-09-25T15:01:16.006Z,19.62
2017-09-25T15:03:44.405Z,19.55
2017-09-25T15:06:12.749Z,19.49
2017-09-25T15:08:41.078Z,19.52
2017-09-25T15:11:09.428Z,19.71
2017-09-25T15:13:37.837Z,20.00
2017-09-25T15:16:06.156Z,20.34
2017-09-25T15:18:34.526Z,20.52
2017-09-25T15:21:02.856Z,20.75
2017-09-25T15:23:31.208Z,21.01
2017-09-25T15:25:59.973Z,21.11
2017-09-25T15:28:28.319Z,21.04
2017-09-25T15:30:57.493Z,20.90
2017-09-25T15:33:25.841Z,20.75
2017-09-25T15:35:54.214Z,20.52
2017-09-25T15:38:22.543Z,20.29
2017-09-25T15:40:51.167Z,20.17
2017-09-25T15:43:19.506Z,20.00
2017-09-25T15:45:47.905Z,19.79
2017-09-25T15:48:17.012Z,19.70
2017-09-25T15:50:45.343Z,19.61
2017-09-25T15:53:13.701Z,19.51
2017-09-25T15:55:42.067Z,19.36
2017-09-25T15:58:10.449Z,19.26
2017-09-25T16:00:38.871Z,19.18
2017-09-25T16:03:07.223Z,18.99
2017-09-25T16:05:35.578Z,18.89
2017-09-25T16:08:05.300Z,18.83
2017-09-25T16:10:34.882Z,18.79
2017-09-25T16:13:03.980Z,18.78
2017-09-25T16:15:32.309Z,18.62
2017-09-25T16:18:00.678Z,18.60
2017-09-25T16:20:29.003Z,18.46
2017-09-25T16:22:58.128Z,18.40
2017-09-25T16:25:26.531Z,18.41
2017-09-25T16:27:55.258Z,18.39
2017-09-25T16:30:23.998Z,18.36
2017-09-25T16:32:53.136Z,18.24
2017-09-25T16:35:21.659Z,18.23
2017-09-25T16:37:50.059Z,18.14
2017-09-25T16:40:18.818Z,18.10
2017-09-25T16:42:47.145Z,17.98
2017-09-25T16:45:15.460Z,17.94
2017-09-25T16:47:43.811Z,17.85
2017-09-25T16:50:12.132Z,17.80
2017-09-25T16:52:41.277Z,17.67
2017-09-25T16:55:09.597Z,17.60
2017-09-25T16:57:39.011Z,17.50
2017-09-25T17:00:08.119Z,17.44
2017-09-25T17:02:43.604Z,17.30
2017-09-25T17:05:12.383Z,17.24
2017-09-25T17:07:40.749Z,17.18
2017-09-25T17:10:17.608Z,17.10
2017-09-25T17:12:47.481Z,17.07
2017-09-25T17:15:16.110Z,16.99
2017-09-25T17:17:45.316Z,16.89
2017-09-25T17:20:14.429Z,16.83
2017-09-25T17:22:42.783Z,16.71
2017-09-25T17:25:11.946Z,16.68
2017-09-25T17:27:40.275Z,16.57
2017-09-25T17:30:08.607Z,16.45
2017-09-25T17:32:37.234Z,16.41
2017-09-25T17:35:06.417Z,16.37
2017-09-25T17:37:35.552Z,16.32
2017-09-25T17:40:03.913Z,16.22
2017-09-25T17:42:32.254Z,16.11
2017-09-25T17:45:00.639Z,16.07
2017-09-25T17:47:29.032Z,16.05
2017-09-25T17:49:58.166Z,16.09
2017-09-25T17:52:26.515Z,16.03
2017-09-25T17:54:55.621Z,16.00
2017-09-25T17:57:24.768Z,15.95
2017-09-25T17:59:53.130Z,15.93
2017-09-25T18:02:21.498Z,15.89
2017-09-25T18:04:50.378Z,15.92
2017-09-25T18:07:19.035Z,15.80
2017-09-25T18:09:47.375Z,15.66
2017-09-25T18:12:15.777Z,15.68
2017-09-25T18:14:44.194Z,15.57
2017-09-25T18:17:12.584Z,15.56
2017-09-25T18:19:41.098Z,15.51
2017-09-25T18:22:09.510Z,15.40
2017-09-25T18:24:38.189Z,15.41
2017-09-25T18:27:06.549Z,15.30
2017-09-25T18:29:34.883Z,15.33
2017-09-25T18:32:04.034Z,15.22
2017-09-25T18:34:32.364Z,15.18
2017-09-25T18:37:01.508Z,15.10
2017-09-25T18:39:30.904Z,15.10
2017-09-25T18:41:59.521Z,15.11
2017-09-25T18:44:27.859Z,15.04
2017-09-25T18:46:56.236Z,14.96
2017-09-25T18:49:24.614Z,15.02
2017-09-25T18:51:52.947Z,14.99
2017-09-25T18:54:21.314Z,14.90
2017-09-25T18:56:50.174Z,14.87
2017-09-25T18:59:18.805Z,14.88
2017-09-25T19:01:47.151Z,14.93
2017-09-25T19:04:15.520Z,14.87
2017-09-25T19:06:43.893Z,14.85
2017-09-25T19:09:12.242Z,14.82
2017-09-25T19:11:41.383Z,14.61
2017-09-25T19:14:09.725Z,14.54
2017-09-25T19:16:38.864Z,14.50
2017-09-25T19:19:07.266Z,14.44
2017-09-25T19:21:35.616Z,14.36
2017-09-25T19:24:04.010Z,14.33
2017-09-25T19:26:32.420Z,14.28
2017-09-25T19:29:01.103Z,14.21
2017-09-25T19:31:30.133Z,14.10
2017-09-25T19:33:59.958Z,14.08
2017-09-25T19:36:29.987Z,14.00
2017-09-25T19:39:04.745Z,13.95
2017-09-25T19:41:40.390Z,13.97
2017-09-25T19:44:13.382Z,13.97
2017-09-25T19:46:42.224Z,14.01
2017-09-25T19:49:10.609Z,13.83
2017-09-25T19:51:38.955Z,13.89
2017-09-25T19:54:13.880Z,13.88
2017-09-25T19:56:57.895Z,13.89
2017-09-25T19:59:26.271Z,13.77
2017-09-25T20:01:54.627Z,13.76
2017-09-25T20:04:22.976Z,13.73
2017-09-25T20:06:52.116Z,13.64
2017-09-25T20:09:20.463Z,13.53
2017-09-25T20:11:49.682Z,13.49
2017-09-25T20:17:34.060Z,13.50
2017-09-25T20:20:03.216Z,13.47
2017-09-25T20:22:36.679Z,13.51
2017-09-25T20:25:05.398Z,13.42
2017-09-25T20:27:34.918Z,13.49
2017-09-25T20:30:07.883Z,13.38
2017-09-25T20:32:37.461Z,13.29
2017-09-25T20:35:08.374Z,13.28
2017-09-25T20:37:38.577Z,13.27
2017-09-25T20:40:07.977Z,13.29
2017-09-25T20:42:46.251Z,13.29
2017-09-25T20:45:22.767Z,13.24
2017-09-25T20:48:03.096Z,13.20
2017-09-25T20:50:37.724Z,13.16
2017-09-25T20:53:11.103Z,13.10
2017-09-25T20:55:43.528Z,13.01
2017-09-25T20:58:16.373Z,13.07
2017-09-25T21:00:49.730Z,13.02
2017-09-25T21:03:23.041Z,12.94
2017-09-25T21:05:56.727Z,12.94
2017-09-25T21:08:30.005Z,12.91
2017-09-25T21:10:59.251Z,12.80
2017-09-25T21:13:28.507Z,12.81
2017-09-25T21:15:57.586Z,12.86
2017-09-25T21:18:25.924Z,12.80
2017-09-25T21:20:54.340Z,12.75
2017-09-25T21:23:22.689Z,12.71
2017-09-25T21:25:51.015Z,12.74
2017-09-25T21:28:19.356Z,12.80
2017-09-25T21:30:47.967Z,12.74
2017-09-25T21:33:16.314Z,12.69
2017-09-25T21:35:44.650Z,12.63
2017-09-25T21:38:13.739Z,12.58
2017-09-25T21:40:43.110Z,12.67
2017-09-25T21:43:11.436Z,12.64
2017-09-25T21:45:40.556Z,12.69
2017-09-25T21:48:08.898Z,12.71
2017-09-25T21:50:38.008Z,12.72
2017-09-25T21:53:07.111Z,12.65
2017-09-25T21:55:38.126Z,12.59
2017-09-25T21:58:15.531Z,12.59
2017-09-25T22:00:44.852Z,12.61
2017-09-25T22:03:13.207Z,12.58
2017-09-25T22:05:42.355Z,12.54
2017-09-25T22:08:11.575Z,12.62
2017-09-25T22:10:39.912Z,12.60
2017-09-25T22:13:08.250Z,12.52
2017-09-25T22:15:36.664Z,12.44
2017-09-25T22:18:05.987Z,12.41
2017-09-25T22:20:34.351Z,12.46
2017-09-25T22:23:02.688Z,12.52
2017-09-25T22:25:31.081Z,12.41
2017-09-25T22:27:59.487Z,12.37
2017-09-25T22:30:27.817Z,12.33
2017-09-25T22:32:56.151Z,12.40
2017-09-25T22:35:24.474Z,12.26
2017-09-25T22:37:52.829Z,12.36
2017-09-25T22:40:21.169Z,12.30
2017-09-25T22:42:49.508Z,12.30
2017-09-25T22:45:17.860Z,12.28
2017-09-25T22:47:46.208Z,12.37
2017-09-25T22:50:15.342Z,12.30
2017-09-25T22:52:43.665Z,12.31
2017-09-25T22:55:12.006Z,12.38
2017-09-25T22:57:40.353Z,12.43
2017-09-25T23:00:08.672Z,12.38
2017-09-25T23:02:37.028Z,12.36
2017-09-25T23:08:20.230Z,12.40
2017-09-25T23:10:48.569Z,12.48
2017-09-25T23:13:17.684Z,12.44
2017-09-25T23:15:46.034Z,12.43
2017-09-25T23:18:14.380Z,12.41
2017-09-25T23:20:43.469Z,12.39
2017-09-25T23:23:11.803Z,12.40
2017-09-25T23:25:40.154Z,12.36
2017-09-25T23:28:08.475Z,12.35
2017-09-25T23:30:55.492Z,12.34
2017-09-25T23:33:23.827Z,12.40
2017-09-25T23:35:52.266Z,12.42
2017-09-25T23:38:20.784Z,12.36
2017-09-25T23:40:49.867Z,12.36
2017-09-25T23:43:18.209Z,12.39
2017-09-25T23:45:46.532Z,12.48
2017-09-25T23:48:15.645Z,12.42
2017-09-25T23:50:43.991Z,12.45
2017-09-25T23:53:12.332Z,12.46
2017-09-25T23:55:40.667Z,12.44
2017-09-25T23:58:09.769Z,12.37
